Time;durP1;ratioP1;P1;durP2;ratioP2;P2;SDS_P1;SDS_P2;PMS_P1;PMS_P2;Temp;Humidity;BMP_temperature;BMP_pressure;BME280_temperature;BME280_humidity;BME280_pressure;Samples;Min_cycle;Max_cycle;Signal;HPM_P1;HPM_P2
2021/10/04 00:02:19;;;;;;;9.98;3.97;;;10.80;99.90;;;;;;5053866;28;20032;-66
2021/10/04 00:04:44;;;;;;;10.88;3.40;;;10.90;99.90;;;;;;5056526;28;20040;-66
2021/10/04 00:07:10;;;;;;;8.43;3.95;;;10.80;99.90;;;;;;5054378;28;20041;-66
2021/10/04 00:09:36;;;;;;;8.90;3.80;;;10.90;99.90;;;;;;5053316;28;20065;-66
2021/10/04 00:12:01;;;;;;;7.50;3.50;;;10.80;99.90;;;;;;5055487;28;20044;-66
2021/10/04 00:14:28;;;;;;;8.05;3.20;;;10.90;99.90;;;;;;5049037;28;20527;-66
2021/10/04 00:16:54;;;;;;;12.25;3.60;;;10.80;99.90;;;;;;5055006;28;20122;-66
2021/10/04 00:19:20;;;;;;;7.45;3.08;;;10.90;99.90;;;;;;5049797;28;20037;-66
2021/10/04 00:21:46;;;;;;;8.80;3.45;;;10.90;99.90;;;;;;5032887;28;20385;-66
2021/10/04 00:24:12;;;;;;;7.20;3.38;;;10.90;99.90;;;;;;5052339;28;20060;-66
2021/10/04 00:26:38;;;;;;;7.22;3.03;;;10.90;99.90;;;;;;5041780;28;20143;-66
2021/10/04 00:29:03;;;;;;;8.93;3.88;;;10.90;99.90;;;;;;5054306;28;20456;-66
2021/10/04 00:31:29;;;;;;;11.05;3.65;;;10.90;99.90;;;;;;5050508;28;20068;-66
2021/10/04 00:33:55;;;;;;;7.35;3.58;;;10.80;99.90;;;;;;5056183;28;20044;-66
2021/10/04 00:36:21;;;;;;;7.50;3.42;;;10.80;99.90;;;;;;5054660;28;20037;-66
2021/10/04 00:38:47;;;;;;;7.40;3.00;;;10.80;99.90;;;;;;5044125;28;20225;-66
2021/10/04 00:41:12;;;;;;;7.15;3.22;;;10.80;99.90;;;;;;5051291;28;20076;-66
2021/10/04 00:43:38;;;;;;;8.77;3.60;;;10.70;99.90;;;;;;5049197;28;20501;-66
2021/10/04 00:46:04;;;;;;;14.82;3.90;;;10.80;99.90;;;;;;5059968;28;20549;-66
2021/10/04 00:48:30;;;;;;;7.55;3.50;;;10.80;99.90;;;;;;5058528;28;20044;-66
2021/10/04 00:50:55;;;;;;;10.20;3.70;;;10.80;99.90;;;;;;5058347;28;20080;-66
2021/10/04 00:53:21;;;;;;;9.88;3.80;;;10.70;99.90;;;;;;5057125;28;20133;-66
2021/10/04 00:55:47;;;;;;;10.10;3.70;;;10.70;99.90;;;;;;5038985;28;20099;-66
2021/10/04 00:58:13;;;;;;;11.98;4.05;;;10.70;99.90;;;;;;5054661;28;20037;-66
2021/10/04 01:00:39;;;;;;;5.55;3.45;;;10.70;99.90;;;;;;5049815;28;20041;-66
2021/10/04 01:03:05;;;;;;;9.05;4.18;;;10.70;99.90;;;;;;5056359;28;20099;-66
2021/10/04 01:05:31;;;;;;;9.40;3.95;;;10.70;99.90;;;;;;5056990;28;20041;-66
2021/10/04 01:07:57;;;;;;;7.80;3.60;;;10.70;99.90;;;;;;5057717;28;20440;-66
2021/10/04 01:10:23;;;;;;;7.88;4.03;;;10.70;99.90;;;;;;5033007;28;20040;-66
2021/10/04 01:12:50;;;;;;;11.48;3.38;;;10.70;99.90;;;;;;5063254;28;20039;-66
2021/10/04 01:15:18;;;;;;;10.27;3.65;;;10.60;99.90;;;;;;5062032;28;20028;-66
2021/10/04 01:17:44;;;;;;;11.70;3.55;;;10.70;99.90;;;;;;5062966;28;20036;-66
2021/10/04 01:20:25;;;;;;;8.98;3.95;;;10.70;99.90;;;;;;5056038;28;20477;-66
2021/10/04 01:22:52;;;;;;;7.70;3.50;;;10.70;99.90;;;;;;5066720;28;20041;-66
2021/10/04 01:25:19;;;;;;;12.95;3.50;;;10.70;99.90;;;;;;5054812;28;20072;-66
2021/10/04 01:27:46;;;;;;;7.13;3.40;;;10.70;99.90;;;;;;5062208;28;20164;-66
2021/10/04 01:30:13;;;;;;;9.20;3.45;;;10.70;99.90;;;;;;5070178;28;20041;-66
2021/10/04 01:32:40;;;;;;;9.85;3.88;;;10.70;99.90;;;;;;5055648;28;20483;-66
2021/10/04 01:35:07;;;;;;;8.35;3.28;;;10.70;99.90;;;;;;5063248;28;20444;-66
2021/10/04 01:37:33;;;;;;;7.65;3.00;;;10.70;99.90;;;;;;5055720;28;20077;-66
2021/10/04 01:39:58;;;;;;;6.78;3.00;;;10.70;99.90;;;;;;5057758;28;20396;-66
2021/10/04 01:42:24;;;;;;;7.45;2.97;;;10.70;99.90;;;;;;5054110;28;20475;-66
2021/10/04 01:44:51;;;;;;;8.07;3.20;;;10.70;99.90;;;;;;5060563;28;20067;-66
2021/10/04 01:47:17;;;;;;;9.93;3.35;;;10.70;99.90;;;;;;5054139;28;20065;-66
2021/10/04 01:49:44;;;;;;;8.35;3.15;;;10.80;99.90;;;;;;5054743;28;20115;-66
2021/10/04 01:52:11;;;;;;;7.70;3.60;;;10.80;99.90;;;;;;5064742;28;20118;-66
2021/10/04 01:54:38;;;;;;;7.95;3.17;;;10.80;99.90;;;;;;5062580;28;20068;-66
2021/10/04 01:57:04;;;;;;;10.98;3.20;;;10.80;99.90;;;;;;5053628;28;20051;-66
2021/10/04 01:59:29;;;;;;;6.78;2.83;;;10.80;99.90;;;;;;5053021;28;20033;-67
2021/10/04 02:01:55;;;;;;;5.32;2.50;;;10.80;99.90;;;;;;5055349;28;20064;-66
2021/10/04 02:04:21;;;;;;;5.75;1.92;;;10.80;99.90;;;;;;5062172;28;20660;-66
2021/10/04 02:06:49;;;;;;;7.20;2.47;;;10.70;99.90;;;;;;5055715;28;20041;-66
2021/10/04 02:09:17;;;;;;;5.78;2.42;;;10.80;99.90;;;;;;5062380;28;20064;-66
2021/10/04 02:11:43;;;;;;;5.63;2.20;;;10.70;99.90;;;;;;5055028;28;20043;-66
2021/10/04 02:14:08;;;;;;;4.72;1.90;;;10.80;99.90;;;;;;5057470;28;20707;-66
2021/10/04 02:16:34;;;;;;;9.05;2.35;;;10.80;99.90;;;;;;5039298;28;20108;-66
2021/10/04 02:19:00;;;;;;;5.82;1.90;;;10.70;99.90;;;;;;5053266;28;20044;-66
2021/10/04 02:21:26;;;;;;;5.63;2.40;;;10.80;99.90;;;;;;5058070;28;20389;-66
2021/10/04 02:23:51;;;;;;;9.60;2.40;;;10.70;99.90;;;;;;5052219;28;20685;-66
2021/10/04 02:26:17;;;;;;;6.40;2.20;;;10.70;99.90;;;;;;5069001;28;20522;-66
2021/10/04 02:28:43;;;;;;;6.70;1.90;;;10.70;99.90;;;;;;5057876;28;20313;-66
2021/10/04 02:31:09;;;;;;;6.38;2.78;;;10.70;99.90;;;;;;5071789;28;20052;-66
2021/10/04 02:33:34;;;;;;;6.45;2.10;;;10.70;99.90;;;;;;5047732;28;20742;-66
2021/10/04 02:36:00;;;;;;;7.32;2.05;;;10.70;99.90;;;;;;5058667;28;20032;-66
2021/10/04 02:38:26;;;;;;;6.75;2.03;;;10.70;99.90;;;;;;5052766;28;20044;-66
2021/10/04 02:40:52;;;;;;;6.05;1.83;;;10.70;99.90;;;;;;5059524;28;20036;-66
2021/10/04 02:43:18;;;;;;;5.38;1.80;;;10.70;99.90;;;;;;5057003;28;20511;-66
2021/10/04 02:45:46;;;;;;;8.48;2.08;;;10.70;99.90;;;;;;5064645;28;20067;-66
2021/10/04 02:48:12;;;;;;;10.40;2.00;;;10.60;99.90;;;;;;5056805;28;20536;-66
2021/10/04 02:50:38;;;;;;;11.02;2.20;;;10.60;99.90;;;;;;5056730;28;20040;-66
2021/10/04 02:53:03;;;;;;;5.45;1.85;;;10.60;99.90;;;;;;5064168;28;20113;-66
2021/10/04 02:55:29;;;;;;;5.32;1.88;;;10.60;99.90;;;;;;5049758;28;20033;-66
2021/10/04 02:57:55;;;;;;;8.43;2.13;;;10.60;99.90;;;;;;5061481;28;20041;-66
2021/10/04 03:00:20;;;;;;;6.25;2.63;;;10.60;99.90;;;;;;5033290;28;20545;-66
2021/10/04 03:02:46;;;;;;;8.32;2.40;;;10.60;99.90;;;;;;5052055;28;20047;-66
2021/10/04 03:05:12;;;;;;;5.70;1.85;;;10.60;99.90;;;;;;5054377;28;20109;-66
2021/10/04 03:07:38;;;;;;;5.72;1.65;;;10.60;99.90;;;;;;5063787;28;20407;-66
2021/10/04 03:10:04;;;;;;;6.07;1.80;;;10.60;99.90;;;;;;5048930;28;20037;-66
2021/10/04 03:12:30;;;;;;;6.95;1.70;;;10.60;99.90;;;;;;5054018;28;20473;-66
2021/10/04 03:14:58;;;;;;;4.85;1.85;;;10.50;99.90;;;;;;5052601;28;20094;-66
2021/10/04 03:17:23;;;;;;;6.80;1.50;;;10.50;99.90;;;;;;5061632;28;20069;-66
2021/10/04 03:19:49;;;;;;;6.63;1.77;;;10.50;99.90;;;;;;5047786;28;20149;-66
2021/10/04 03:22:15;;;;;;;3.47;1.40;;;10.50;99.90;;;;;;5053772;28;20495;-66
2021/10/04 03:24:40;;;;;;;6.65;2.10;;;10.50;99.90;;;;;;5049772;28;20079;-66
2021/10/04 03:27:06;;;;;;;6.95;1.60;;;10.50;99.90;;;;;;5060929;28;20155;-66
2021/10/04 03:29:32;;;;;;;5.18;2.00;;;10.50;99.90;;;;;;5044759;28;20102;-66
2021/10/04 03:31:57;;;;;;;3.50;1.70;;;10.40;99.90;;;;;;5052414;28;20049;-66
2021/10/04 03:34:23;;;;;;;4.88;1.90;;;10.40;99.90;;;;;;5064094;28;20029;-66
2021/10/04 03:36:50;;;;;;;5.05;1.83;;;10.40;99.90;;;;;;5071089;28;20045;-66
2021/10/04 03:39:16;;;;;;;7.57;2.05;;;10.40;99.90;;;;;;5034996;28;20128;-66
2021/10/04 03:41:42;;;;;;;6.57;1.75;;;10.40;99.90;;;;;;5047678;28;20676;-66
2021/10/04 03:44:07;;;;;;;5.82;1.70;;;10.40;99.90;;;;;;5050124;28;20039;-66
2021/10/04 03:46:33;;;;;;;6.95;2.00;;;10.40;99.90;;;;;;5038126;28;20032;-66
2021/10/04 03:48:59;;;;;;;7.78;1.80;;;10.40;99.90;;;;;;5061137;28;20453;-66
2021/10/04 03:51:26;;;;;;;5.30;1.30;;;10.50;99.90;;;;;;5056849;28;20071;-66
2021/10/04 03:53:52;;;;;;;6.60;1.90;;;10.50;99.90;;;;;;5038193;28;20080;-66
2021/10/04 03:56:17;;;;;;;5.65;1.73;;;10.50;99.90;;;;;;5048006;28;20540;-66
2021/10/04 03:58:43;;;;;;;7.00;1.70;;;10.50;99.90;;;;;;5060450;28;20032;-66
2021/10/04 04:01:10;;;;;;;4.18;1.80;;;10.50;99.90;;;;;;5056874;28;20123;-66
2021/10/04 04:03:37;;;;;;;6.25;2.10;;;10.50;99.90;;;;;;5060595;28;20040;-66
2021/10/04 04:06:03;;;;;;;6.63;1.80;;;10.50;99.90;;;;;;5061123;28;20036;-66
2021/10/04 04:08:29;;;;;;;5.05;1.75;;;10.50;99.90;;;;;;5039463;28;20079;-66
2021/10/04 04:10:56;;;;;;;7.65;1.70;;;10.50;99.90;;;;;;5063798;28;20040;-66
2021/10/04 04:13:21;;;;;;;9.00;1.85;;;10.40;99.90;;;;;;5057051;28;20520;-66
2021/10/04 04:15:47;;;;;;;5.88;1.83;;;10.50;99.90;;;;;;5046491;28;20045;-66
2021/10/04 04:18:13;;;;;;;9.30;2.00;;;10.50;99.90;;;;;;5056729;28;20400;-66
2021/10/04 04:20:39;;;;;;;6.35;1.50;;;10.50;99.90;;;;;;5064187;28;20094;-66
2021/10/04 04:23:05;;;;;;;8.02;1.83;;;10.50;99.90;;;;;;5064451;28;20078;-66
2021/10/04 04:25:31;;;;;;;7.93;2.10;;;10.40;99.90;;;;;;5067930;28;20101;-66
2021/10/04 04:28:00;;;;;;;7.80;1.80;;;10.40;99.90;;;;;;5059963;28;20477;-66
2021/10/04 04:30:27;;;;;;;5.43;1.52;;;10.40;99.90;;;;;;5066206;28;20063;-66
2021/10/04 04:32:53;;;;;;;6.43;1.50;;;10.40;99.90;;;;;;5057168;28;20477;-66
2021/10/04 04:35:19;;;;;;;13.88;8.77;;;10.40;99.90;;;;;;5066759;28;20029;-66
2021/10/04 04:37:45;;;;;;;10.43;3.45;;;10.40;99.90;;;;;;5054962;28;20041;-66
2021/10/04 04:40:14;;;;;;;4.07;1.50;;;10.40;99.90;;;;;;5084093;28;20029;-66
2021/10/04 04:42:42;;;;;;;6.13;1.75;;;10.40;99.90;;;;;;5055387;28;20113;-66
2021/10/04 04:45:11;;;;;;;8.10;1.80;;;10.40;99.90;;;;;;5066940;28;20037;-66
2021/10/04 04:47:37;;;;;;;7.85;1.80;;;10.40;99.90;;;;;;5066106;28;20349;-66
2021/10/04 04:50:04;;;;;;;6.10;1.77;;;10.30;99.90;;;;;;5060922;28;20048;-66
2021/10/04 04:52:30;;;;;;;6.55;1.50;;;10.40;99.90;;;;;;5067648;28;20122;-66
2021/10/04 04:54:55;;;;;;;5.68;1.50;;;10.40;99.90;;;;;;5061445;28;20057;-66
2021/10/04 04:57:21;;;;;;;6.75;2.13;;;10.40;99.90;;;;;;5050162;28;20045;-66
2021/10/04 04:59:47;;;;;;;8.18;1.50;;;10.40;99.90;;;;;;5059706;28;20036;-66
2021/10/04 05:02:13;;;;;;;4.82;1.42;;;10.40;99.90;;;;;;5064391;28;20040;-66
2021/10/04 05:04:39;;;;;;;5.45;1.55;;;10.40;99.90;;;;;;5056282;28;20040;-66
2021/10/04 05:07:05;;;;;;;6.38;1.60;;;10.40;99.90;;;;;;5067976;28;20043;-66
2021/10/04 05:09:30;;;;;;;7.45;1.67;;;10.40;99.90;;;;;;5042164;28;20048;-66
2021/10/04 05:11:56;;;;;;;6.00;1.70;;;10.40;99.90;;;;;;5043491;28;20416;-66
2021/10/04 05:14:22;;;;;;;3.90;1.10;;;10.40;99.90;;;;;;5056328;28;20029;-66
2021/10/04 05:16:47;;;;;;;7.35;1.42;;;10.40;99.90;;;;;;5059990;28;20044;-66
2021/10/04 05:19:13;;;;;;;6.72;1.30;;;10.40;99.90;;;;;;5035956;28;20049;-66
2021/10/04 05:21:39;;;;;;;7.38;1.13;;;10.40;99.90;;;;;;5038412;28;20480;-66
2021/10/04 05:24:05;;;;;;;7.10;1.60;;;10.40;99.90;;;;;;5042512;28;20055;-66
2021/10/04 05:26:31;;;;;;;9.35;1.55;;;10.40;99.90;;;;;;5051974;28;20140;-66
2021/10/04 05:28:57;;;;;;;5.53;1.27;;;10.40;99.90;;;;;;5055041;28;20324;-66
2021/10/04 05:31:23;;;;;;;6.70;1.38;;;10.40;99.90;;;;;;5057145;28;20044;-66
2021/10/04 05:33:49;;;;;;;5.93;1.40;;;10.40;99.90;;;;;;5065697;28;20048;-66
2021/10/04 05:36:15;;;;;;;8.93;1.60;;;10.40;99.90;;;;;;5053568;28;20622;-66
2021/10/04 05:38:41;;;;;;;9.32;2.03;;;10.40;99.90;;;;;;5057434;28;20033;-66
2021/10/04 05:41:07;;;;;;;7.70;1.52;;;10.40;99.90;;;;;;5034869;28;20041;-66
2021/10/04 05:43:33;;;;;;;7.30;1.40;;;10.40;99.90;;;;;;5053098;28;20045;-66
2021/10/04 05:46:00;;;;;;;10.50;2.00;;;10.40;99.90;;;;;;5035135;28;20409;-67
2021/10/04 05:48:26;;;;;;;4.43;1.40;;;10.40;99.90;;;;;;5061898;28;20536;-67
2021/10/04 05:50:52;;;;;;;12.00;1.60;;;10.40;99.90;;;;;;5056092;28;20131;-66
2021/10/04 05:53:18;;;;;;;10.10;1.58;;;10.40;99.90;;;;;;5056830;28;20037;-66
2021/10/04 05:55:46;;;;;;;4.90;1.10;;;10.40;99.90;;;;;;5051553;28;20036;-66
2021/10/04 05:58:11;;;;;;;7.28;1.30;;;10.40;99.90;;;;;;5060914;28;20101;-67
2021/10/04 06:00:37;;;;;;;5.50;1.10;;;10.40;99.90;;;;;;5062216;28;20040;-67
2021/10/04 06:03:03;;;;;;;6.18;2.00;;;10.50;99.90;;;;;;5058933;28;20252;-67
2021/10/04 06:05:29;;;;;;;6.75;1.80;;;10.40;99.90;;;;;;5066323;28;20041;-67
2021/10/04 06:07:54;;;;;;;8.35;1.67;;;10.50;99.90;;;;;;5040525;28;20504;-67
2021/10/04 06:10:20;;;;;;;7.65;1.77;;;10.50;99.90;;;;;;5071761;28;20470;-67
2021/10/04 06:12:47;;;;;;;9.07;2.00;;;10.50;99.90;;;;;;5051920;28;20516;-67
2021/10/04 06:15:16;;;;;;;7.28;1.52;;;10.60;99.90;;;;;;5056749;28;20378;-67
2021/10/04 06:17:43;;;;;;;7.45;1.80;;;10.60;99.90;;;;;;5041641;28;20079;-67
2021/10/04 06:20:10;;;;;;;5.55;1.48;;;10.60;99.90;;;;;;5064541;28;20075;-67
2021/10/04 06:22:37;;;;;;;6.75;1.67;;;10.70;99.90;;;;;;5051048;28;20040;-67
2021/10/04 06:25:05;;;;;;;4.13;1.30;;;10.70;99.90;;;;;;5052480;28;20040;-67
2021/10/04 06:27:30;;;;;;;4.05;1.20;;;10.70;99.90;;;;;;5050767;28;20037;-67
2021/10/04 06:29:56;;;;;;;6.50;1.60;;;10.80;99.90;;;;;;5055317;28;20041;-67
2021/10/04 06:32:22;;;;;;;7.45;1.70;;;10.80;99.90;;;;;;5028434;28;20486;-67
2021/10/04 06:34:47;;;;;;;5.10;2.00;;;10.80;99.90;;;;;;5065371;28;20040;-67
2021/10/04 06:37:13;;;;;;;8.38;1.80;;;10.80;99.90;;;;;;5068376;28;20569;-68
2021/10/04 06:39:39;;;;;;;7.22;1.70;;;10.80;99.90;;;;;;5055666;28;20039;-68
2021/10/04 06:42:04;;;;;;;7.28;1.80;;;10.80;99.90;;;;;;5081058;28;20088;-68
2021/10/04 06:44:30;;;;;;;9.77;2.15;;;10.80;99.90;;;;;;5050320;28;20041;-68
2021/10/04 06:46:56;;;;;;;5.20;1.55;;;10.80;99.90;;;;;;5055007;28;20048;-68
2021/10/04 06:49:22;;;;;;;6.00;1.35;;;10.80;99.90;;;;;;5049665;28;20036;-68
2021/10/04 06:51:48;;;;;;;5.93;1.55;;;10.90;99.90;;;;;;5056584;28;20033;-68
2021/10/04 06:54:13;;;;;;;4.88;1.73;;;10.90;99.90;;;;;;5055926;28;20233;-68
2021/10/04 06:56:39;;;;;;;4.65;1.90;;;10.90;99.90;;;;;;5044772;28;20037;-68
2021/10/04 06:59:06;;;;;;;5.93;1.55;;;11.00;99.90;;;;;;5046574;28;20139;-68
2021/10/04 07:01:32;;;;;;;5.53;1.50;;;11.00;99.90;;;;;;5075104;28;20067;-67
2021/10/04 07:04:00;;;;;;;6.32;1.70;;;11.00;99.90;;;;;;5033639;28;20045;-68
2021/10/04 07:06:25;;;;;;;5.53;1.67;;;11.10;99.90;;;;;;5056728;28;20041;-67
2021/10/04 07:08:51;;;;;;;6.18;1.85;;;11.00;99.90;;;;;;5064025;28;20051;-68
2021/10/04 07:11:17;;;;;;;3.08;1.70;;;11.10;99.90;;;;;;5036675;28;20485;-68
2021/10/04 07:13:42;;;;;;;7.57;1.52;;;11.10;99.90;;;;;;5049809;28;20059;-68
2021/10/04 07:16:12;;;;;;;4.72;1.52;;;11.10;99.90;;;;;;5051224;28;20520;-68
2021/10/04 07:18:38;;;;;;;5.47;1.92;;;11.10;99.90;;;;;;5050806;28;20074;-68
2021/10/04 07:21:03;;;;;;;5.03;1.80;;;11.10;99.90;;;;;;5053140;28;20397;-67
2021/10/04 07:23:29;;;;;;;6.85;1.80;;;11.10;99.90;;;;;;5056109;28;20045;-67
2021/10/04 07:25:55;;;;;;;7.28;1.67;;;11.10;99.90;;;;;;5047570;28;20152;-67
2021/10/04 07:28:20;;;;;;;6.13;1.23;;;11.20;99.90;;;;;;5038369;28;20095;-67
2021/10/04 07:30:48;;;;;;;6.03;1.60;;;11.20;99.90;;;;;;5050457;28;20056;-67
2021/10/04 07:33:14;;;;;;;6.72;1.98;;;11.20;99.90;;;;;;5052891;28;20049;-67
2021/10/04 07:35:40;;;;;;;5.72;1.38;;;11.30;99.90;;;;;;5048715;28;20045;-67
2021/10/04 07:38:06;;;;;;;5.80;1.50;;;11.20;99.90;;;;;;5053007;28;20041;-67
2021/10/04 07:40:32;;;;;;;4.57;2.13;;;11.30;99.90;;;;;;5030104;28;20194;-68
2021/10/04 07:42:57;;;;;;;5.22;1.30;;;11.30;99.90;;;;;;5066330;28;20044;-68
2021/10/04 07:45:23;;;;;;;5.22;1.52;;;11.30;99.90;;;;;;5047419;28;20041;-68
2021/10/04 07:47:51;;;;;;;5.60;1.33;;;11.40;99.90;;;;;;5053408;28;20079;-68
2021/10/04 07:50:16;;;;;;;5.05;1.25;;;11.40;99.90;;;;;;5032849;28;20390;-68
2021/10/04 07:52:44;;;;;;;6.10;1.35;;;11.40;99.90;;;;;;5055001;28;20126;-68
2021/10/04 07:55:11;;;;;;;6.20;1.30;;;11.50;99.90;;;;;;5050460;28;20041;-68
2021/10/04 07:57:37;;;;;;;5.47;1.63;;;11.50;99.90;;;;;;5053392;28;20469;-68
2021/10/04 08:00:05;;;;;;;6.82;1.58;;;11.50;99.90;;;;;;5057951;28;20477;-68
2021/10/04 08:02:31;;;;;;;5.22;1.20;;;11.60;99.90;;;;;;5045632;28;20055;-68
2021/10/04 08:04:57;;;;;;;3.70;1.20;;;11.60;99.90;;;;;;5018832;28;20071;-68
2021/10/04 08:07:22;;;;;;;4.80;1.52;;;11.70;99.90;;;;;;5064071;28;20076;-68
2021/10/04 08:09:48;;;;;;;5.88;1.80;;;11.80;99.90;;;;;;5065917;28;20051;-68
2021/10/04 08:12:14;;;;;;;6.97;1.52;;;11.80;99.90;;;;;;5048575;28;20045;-68
2021/10/04 08:14:40;;;;;;;3.55;1.40;;;11.90;99.90;;;;;;5041484;28;20054;-67
2021/10/04 08:17:06;;;;;;;5.57;1.45;;;11.90;99.90;;;;;;5060899;28;20507;-68
2021/10/04 08:19:31;;;;;;;8.13;2.00;;;11.90;99.90;;;;;;5059932;28;20039;-68
2021/10/04 08:21:58;;;;;;;6.60;1.65;;;12.00;99.90;;;;;;5055199;28;20133;-68
2021/10/04 08:24:23;;;;;;;4.90;1.25;;;12.10;99.90;;;;;;5044389;28;20128;-68
2021/10/04 08:26:49;;;;;;;4.05;1.15;;;12.10;99.90;;;;;;5039341;28;20374;-68
2021/10/04 08:29:15;;;;;;;6.10;1.77;;;12.20;99.90;;;;;;5035157;28;20049;-68
2021/10/04 08:31:41;;;;;;;3.78;1.10;;;12.30;99.90;;;;;;5049795;28;20497;-68
2021/10/04 08:34:07;;;;;;;4.68;1.00;;;12.50;99.90;;;;;;5052794;28;20036;-68
2021/10/04 08:36:35;;;;;;;5.97;1.20;;;12.70;99.90;;;;;;5049386;28;20032;-68
2021/10/04 08:39:02;;;;;;;176.93;11.52;;;12.80;99.90;;;;;;5059295;28;20400;-68
2021/10/04 08:41:28;;;;;;;31.63;3.67;;;13.70;99.90;;;;;;5041057;28;20083;-66
2021/10/04 08:43:55;;;;;;;4.03;1.00;;;15.00;99.90;;;;;;5052397;28;20032;-66
2021/10/04 08:46:22;;;;;;;8.48;1.30;;;16.30;99.90;;;;;;5065172;28;20082;-66
2021/10/04 08:48:49;;;;;;;3.25;1.02;;;17.30;99.90;;;;;;5030193;28;20041;-66
2021/10/04 08:51:16;;;;;;;2.97;0.77;;;18.10;99.90;;;;;;5035913;28;20480;-66
2021/10/04 08:53:42;;;;;;;5.70;1.05;;;18.70;99.90;;;;;;5052466;28;20094;-66
2021/10/04 08:56:08;;;;;;;5.22;1.20;;;19.30;99.90;;;;;;5053239;28;20045;-66
2021/10/04 08:58:35;;;;;;;6.40;1.45;;;19.80;99.90;;;;;;5047716;28;20041;-66
2021/10/04 09:01:05;;;;;;;3.95;0.88;;;20.20;99.90;;;;;;5051616;28;20094;-66
2021/10/04 09:03:48;;;;;;;4.95;1.17;;;20.60;99.90;;;;;;5046417;28;20041;-67
2021/10/04 09:06:34;;;;;;;3.53;0.90;;;21.00;99.90;;;;;;5058708;28;20045;-67
2021/10/04 09:09:06;;;;;;;6.78;1.10;;;21.40;99.90;;;;;;5050430;28;20451;-67
2021/10/04 09:11:42;;;;;;;3.40;0.77;;;21.70;99.90;;;;;;5057283;28;20032;-67
2021/10/04 09:14:12;;;;;;;4.30;0.80;;;22.00;99.90;;;;;;5053495;28;20044;-67
2021/10/04 09:16:49;;;;;;;9.75;0.98;;;22.20;99.90;;;;;;5038304;28;20064;-68
2021/10/04 09:19:38;;;;;;;3.85;0.80;;;22.20;99.90;;;;;;5049977;28;20045;-67
2021/10/04 09:22:12;;;;;;;4.65;1.15;;;22.40;99.90;;;;;;5060223;28;20037;-67
2021/10/04 09:24:49;;;;;;;3.72;0.63;;;22.50;99.90;;;;;;5047622;28;20271;-67
2021/10/04 09:27:24;;;;;;;2.88;0.90;;;22.60;99.90;;;;;;5033139;28;20131;-67
2021/10/04 09:29:51;;;;;;;5.95;1.27;;;22.70;99.90;;;;;;5052353;28;20029;-67
2021/10/04 09:32:34;;;;;;;3.53;0.70;;;22.70;99.90;;;;;;5064643;28;20536;-68
2021/10/04 09:35:30;;;;;;;3.88;1.05;;;22.90;94.10;;;;;;5051154;28;20064;-67
2021/10/04 09:37:58;;;;;;;3.92;0.98;;;23.20;99.90;;;;;;5057857;28;20037;-67
2021/10/04 09:40:26;;;;;;;5.68;1.00;;;23.30;99.50;;;;;;5049689;28;20470;-67
2021/10/04 09:42:52;;;;;;;5.45;0.90;;;23.50;99.80;;;;;;5054904;28;20348;-67
2021/10/04 09:45:17;;;;;;;6.85;0.85;;;23.70;97.70;;;;;;5035492;28;20465;-67
2021/10/04 09:47:43;;;;;;;4.25;1.20;;;24.00;96.10;;;;;;5069379;28;20049;-67
2021/10/04 09:50:18;;;;;;;1.75;0.63;;;24.10;93.30;;;;;;5059261;28;20428;-67
2021/10/04 09:52:45;;;;;;;4.43;0.80;;;24.00;92.80;;;;;;5064104;28;20049;-67
2021/10/04 09:55:33;;;;;;;5.38;0.90;;;24.00;92.60;;;;;;5056610;28;20044;-67
2021/10/04 09:58:06;;;;;;;3.95;0.95;;;24.00;92.20;;;;;;5053536;28;20044;-67
2021/10/04 10:00:38;;;;;;;4.47;0.77;;;23.90;91.80;;;;;;5059250;28;20140;-67
2021/10/04 10:03:06;;;;;;;3.95;0.70;;;23.70;91.50;;;;;;5059885;28;20118;-67
2021/10/04 10:05:34;;;;;;;3.63;0.88;;;23.70;92.00;;;;;;5054520;28;20492;-66
2021/10/04 10:08:00;;;;;;;2.88;0.70;;;23.60;91.20;;;;;;5056738;28;20040;-66
2021/10/04 10:10:26;;;;;;;5.85;1.17;;;23.60;90.60;;;;;;5054815;28;20033;-66
2021/10/04 10:12:51;;;;;;;5.95;0.82;;;23.50;90.10;;;;;;5062226;28;20037;-66
2021/10/04 10:15:24;;;;;;;3.97;1.10;;;23.60;90.20;;;;;;5057120;28;20036;-66
2021/10/04 10:17:54;;;;;;;2.97;1.00;;;23.50;83.90;;;;;;5060302;28;20040;-66
2021/10/04 10:20:22;;;;;;;4.13;1.00;;;23.40;87.80;;;;;;5055322;28;20049;-66
2021/10/04 10:22:53;;;;;;;3.35;0.90;;;23.40;88.20;;;;;;5050772;28;20044;-66
2021/10/04 10:25:30;;;;;;;7.00;1.02;;;23.50;88.60;;;;;;5059230;28;20121;-66
2021/10/04 10:27:56;;;;;;;3.85;0.70;;;23.30;84.00;;;;;;5057409;28;20033;-66
2021/10/04 10:30:24;;;;;;;7.13;0.52;;;22.80;90.70;;;;;;5058312;28;20033;-66
2021/10/04 10:32:51;;;;;;;3.97;0.88;;;22.30;91.10;;;;;;5064380;28;20512;-66
2021/10/04 10:35:16;;;;;;;6.18;1.00;;;22.00;92.40;;;;;;5055871;28;20045;-66
2021/10/04 10:37:50;;;;;;;4.78;0.75;;;22.00;90.70;;;;;;5058006;28;20368;-67
2021/10/04 10:40:16;;;;;;;5.07;1.00;;;22.40;89.50;;;;;;5060332;28;20171;-67
2021/10/04 10:42:57;;;;;;;5.22;0.90;;;22.60;87.50;;;;;;5059127;28;20553;-67
2021/10/04 10:45:23;;;;;;;3.80;0.60;;;22.90;80.80;;;;;;5055242;28;20449;-67
2021/10/04 10:47:49;;;;;;;5.30;0.85;;;23.00;87.60;;;;;;5058553;28;20067;-67
2021/10/04 10:50:33;;;;;;;4.80;0.73;;;23.40;86.10;;;;;;5050663;28;20059;-66
2021/10/04 10:52:59;;;;;;;3.00;0.85;;;23.60;80.00;;;;;;5057985;28;20075;-66
2021/10/04 10:55:24;;;;;;;6.43;0.70;;;23.60;83.40;;;;;;5057273;28;20201;-67
2021/10/04 10:57:59;;;;;;;6.20;0.80;;;23.60;81.70;;;;;;5052626;28;20052;-66
2021/10/04 11:00:31;;;;;;;2.67;0.60;;;23.70;80.20;;;;;;5045067;28;20044;-67
2021/10/04 11:02:59;;;;;;;3.22;0.70;;;23.80;81.50;;;;;;5055052;28;20110;-67
2021/10/04 11:05:34;;;;;;;4.85;0.75;;;24.10;82.20;;;;;;5055165;28;20045;-67
2021/10/04 11:08:01;;;;;;;6.57;0.70;;;24.50;72.50;;;;;;5034268;28;20055;-67
2021/10/04 11:10:27;;;;;;;3.58;0.60;;;24.70;77.90;;;;;;5056895;28;20389;-67
2021/10/04 11:13:08;;;;;;;4.40;1.05;;;24.60;74.60;;;;;;5050698;28;20489;-67
2021/10/04 11:15:37;;;;;;;4.88;0.82;;;24.70;76.70;;;;;;5060089;28;20504;-66
2021/10/04 11:18:04;;;;;;;4.00;0.75;;;24.80;80.00;;;;;;5049829;28;20037;-66
2021/10/04 11:20:30;;;;;;;3.53;0.82;;;24.90;75.60;;;;;;5051836;28;20075;-67
2021/10/04 11:23:09;;;;;;;4.35;0.60;;;25.00;75.30;;;;;;5064772;28;20393;-67
2021/10/04 11:25:47;;;;;;;3.72;0.77;;;24.90;70.40;;;;;;5053542;28;20048;-67
2021/10/04 11:28:15;;;;;;;5.55;0.98;;;24.90;71.70;;;;;;5068402;28;20573;-67
2021/10/04 11:30:55;;;;;;;4.25;0.63;;;24.70;72.60;;;;;;5075365;28;20150;-67
2021/10/04 11:33:22;;;;;;;4.72;0.73;;;24.70;65.20;;;;;;5049893;28;20053;-67
2021/10/04 11:36:04;;;;;;;4.25;0.50;;;24.40;71.70;;;;;;5060566;28;20052;-67
2021/10/04 11:38:33;;;;;;;4.03;0.85;;;24.50;68.40;;;;;;5058867;28;20045;-67
2021/10/04 11:40:59;;;;;;;5.78;0.98;;;24.20;73.50;;;;;;5029712;28;20051;-67
2021/10/04 11:43:27;;;;;;;8.18;0.60;;;24.30;72.40;;;;;;5053816;28;20471;-67
2021/10/04 11:45:54;;;;;;;10.27;1.23;;;24.40;71.40;;;;;;5052501;28;20036;-67
2021/10/04 11:48:35;;;;;;;3.17;0.70;;;24.60;71.70;;;;;;5038478;28;20065;-67
2021/10/04 11:51:04;;;;;;;5.25;0.63;;;24.70;66.50;;;;;;5051629;28;20040;-67
2021/10/04 11:53:31;;;;;;;5.10;0.77;;;24.60;67.80;;;;;;5063993;28;20373;-68
2021/10/04 11:56:02;;;;;;;4.80;0.80;;;24.70;67.90;;;;;;5053508;28;20049;-67
2021/10/04 11:58:28;;;;;;;6.97;1.00;;;24.80;66.20;;;;;;5059094;28;20485;-67
2021/10/04 12:00:54;;;;;;;5.00;0.80;;;24.70;67.40;;;;;;5074317;28;20066;-67
2021/10/04 12:03:31;;;;;;;4.90;0.80;;;24.70;65.30;;;;;;5055325;28;20033;-68
2021/10/04 12:05:59;;;;;;;4.65;0.65;;;24.50;64.10;;;;;;5049893;28;20453;-67
2021/10/04 12:08:25;;;;;;;5.43;0.80;;;24.50;66.80;;;;;;5035477;28;20095;-67
2021/10/04 12:10:57;;;;;;;4.20;0.60;;;24.50;63.70;;;;;;5031274;28;20048;-67
2021/10/04 12:13:29;;;;;;;4.32;0.77;;;24.40;66.10;;;;;;5051783;28;20040;-67
2021/10/04 12:15:58;;;;;;;4.07;0.60;;;24.40;62.40;;;;;;5049215;28;20028;-67
2021/10/04 12:18:29;;;;;;;4.35;0.73;;;24.50;65.20;;;;;;5058327;28;20110;-67
2021/10/04 12:21:18;;;;;;;3.63;0.57;;;24.60;63.50;;;;;;5049955;28;20473;-67
2021/10/04 12:24:03;;;;;;;4.80;0.70;;;24.50;61.20;;;;;;5053446;28;20060;-67
2021/10/04 12:26:28;;;;;;;;;;;24.40;63.10;;;;;;5048028;28;20122;-67
2021/10/04 12:28:54;;;;;;;5.72;0.65;;;24.30;61.10;;;;;;5058042;28;20082;-67
2021/10/04 12:31:37;;;;;;;2.67;0.65;;;24.40;67.90;;;;;;5047934;28;20032;-67
2021/10/04 12:34:35;;;;;;;3.40;0.47;;;24.70;60.90;;;;;;5056253;28;20654;-68
2021/10/04 12:37:00;;;;;;;2.70;0.65;;;24.20;62.40;;;;;;5040284;28;20048;-67
2021/10/04 12:39:41;;;;;;;2.83;0.60;;;23.10;66.20;;;;;;5058219;28;20441;-67
2021/10/04 12:42:07;;;;;;;4.05;0.55;;;22.20;69.10;;;;;;5055137;28;20093;-67
2021/10/04 12:44:38;;;;;;;3.28;0.63;;;22.10;70.00;;;;;;5059508;28;20033;-67
2021/10/04 12:47:12;;;;;;;3.15;0.45;;;22.30;67.40;;;;;;5059111;28;20060;-66
2021/10/04 12:49:54;;;;;;;4.90;0.70;;;22.90;64.70;;;;;;5067313;28;20093;-66